sensor_id;sensor_type;location;lat;lon;timestamp;temperature;humidity
20231;DHT22;10274;49.022;9.338;2023-08-30T00:00:56;12.30;99.90
20231;DHT22;10274;49.022;9.338;2023-08-30T00:03:23;12.30;99.90
20231;DHT22;10274;49.022;9.338;2023-08-30T00:05:50;12.40;99.90
20231;DHT22;10274;49.022;9.338;2023-08-30T00:08:16;12.50;99.90
20231;DHT22;10274;49.022;9.338;2023-08-30T00:10:45;12.50;99.90
20231;DHT22;10274;49.022;9.338;2023-08-30T00:13:13;12.40;99.90
20231;DHT22;10274;49.022;9.338;2023-08-30T00:15:40;12.40;99.90
20231;DHT22;10274;49.022;9.338;2023-08-30T00:18:06;12.40;99.90
20231;DHT22;10274;49.022;9.338;2023-08-30T00:20:33;12.40;99.90
20231;DHT22;10274;49.022;9.338;2023-08-30T00:23:00;12.30;99.90
20231;DHT22;10274;49.022;9.338;2023-08-30T00:25:27;12.30;99.90
20231;DHT22;10274;49.022;9.338;2023-08-30T00:27:53;12.20;99.90
20231;DHT22;10274;49.022;9.338;2023-08-30T00:30:22;12.20;99.90
20231;DHT22;10274;49.022;9.338;2023-08-30T00:32:48;12.20;99.90
20231;DHT22;10274;49.022;9.338;2023-08-30T00:35:15;12.40;99.90
20231;DHT22;10274;49.022;9.338;2023-08-30T00:37:42;12.50;99.90
20231;DHT22;10274;49.022;9.338;2023-08-30T00:40:09;12.60;99.90
20231;DHT22;10274;49.022;9.338;2023-08-30T00:42:36;12.70;99.90
20231;DHT22;10274;49.022;9.338;2023-08-30T00:45:06;12.70;99.90
20231;DHT22;10274;49.022;9.338;2023-08-30T00:47:35;12.70;99.90
20231;DHT22;10274;49.022;9.338;2023-08-30T00:50:03;12.70;99.90
20231;DHT22;10274;49.022;9.338;2023-08-30T00:52:29;12.70;99.90
20231;DHT22;10274;49.022;9.338;2023-08-30T00:54:55;12.70;99.90
20231;DHT22;10274;49.022;9.338;2023-08-30T00:57:22;12.60;99.90
20231;DHT22;10274;49.022;9.338;2023-08-30T00:59:50;12.60;99.90
20231;DHT22;10274;49.022;9.338;2023-08-30T01:02:17;12.60;99.90
20231;DHT22;10274;49.022;9.338;2023-08-30T01:04:46;12.50;99.90
20231;DHT22;10274;49.022;9.338;2023-08-30T01:07:13;12.60;99.90
20231;DHT22;10274;49.022;9.338;2023-08-30T01:09:40;12.50;99.90
20231;DHT22;10274;49.022;9.338;2023-08-30T01:12:10;12.50;99.90
20231;DHT22;10274;49.022;9.338;2023-08-30T01:14:43;12.50;99.90
20231;DHT22;10274;49.022;9.338;2023-08-30T01:17:14;12.50;99.90
20231;DHT22;10274;49.022;9.338;2023-08-30T01:19:53;12.50;99.90
20231;DHT22;10274;49.022;9.338;2023-08-30T01:22:33;12.50;99.90
20231;DHT22;10274;49.022;9.338;2023-08-30T01:25:12;12.50;99.90
20231;DHT22;10274;49.022;9.338;2023-08-30T01:31:07;12.30;99.90
20231;DHT22;10274;49.022;9.338;2023-08-30T01:33:35;11.90;99.90
20231;DHT22;10274;49.022;9.338;2023-08-30T01:36:03;11.90;99.90
20231;DHT22;10274;49.022;9.338;2023-08-30T01:38:32;12.00;99.90
20231;DHT22;10274;49.022;9.338;2023-08-30T01:41:00;12.10;99.90
20231;DHT22;10274;49.022;9.338;2023-08-30T01:43:30;12.10;99.90
20231;DHT22;10274;49.022;9.338;2023-08-30T01:45:58;12.20;99.90
20231;DHT22;10274;49.022;9.338;2023-08-30T01:48:26;12.20;99.90
20231;DHT22;10274;49.022;9.338;2023-08-30T01:50:54;12.20;99.90
20231;DHT22;10274;49.022;9.338;2023-08-30T01:53:24;12.20;99.90
20231;DHT22;10274;49.022;9.338;2023-08-30T01:55:51;12.10;99.90
20231;DHT22;10274;49.022;9.338;2023-08-30T01:58:18;12.10;99.90
20231;DHT22;10274;49.022;9.338;2023-08-30T02:00:46;12.10;99.90
20231;DHT22;10274;49.022;9.338;2023-08-30T02:03:14;12.10;99.90
20231;DHT22;10274;49.022;9.338;2023-08-30T02:05:48;12.10;99.90
20231;DHT22;10274;49.022;9.338;2023-08-30T02:08:17;12.00;99.90
20231;DHT22;10274;49.022;9.338;2023-08-30T02:10:51;11.90;99.90
20231;DHT22;10274;49.022;9.338;2023-08-30T02:13:24;11.90;99.90
20231;DHT22;10274;49.022;9.338;2023-08-30T02:15:55;11.90;99.90
20231;DHT22;10274;49.022;9.338;2023-08-30T02:18:22;11.60;99.90
20231;DHT22;10274;49.022;9.338;2023-08-30T02:20:49;11.70;99.90
20231;DHT22;10274;49.022;9.338;2023-08-30T02:23:16;11.80;99.90
20231;DHT22;10274;49.022;9.338;2023-08-30T02:25:43;11.80;99.90
20231;DHT22;10274;49.022;9.338;2023-08-30T02:28:10;11.70;99.90
20231;DHT22;10274;49.022;9.338;2023-08-30T02:30:36;11.60;99.90
20231;DHT22;10274;49.022;9.338;2023-08-30T02:33:04;11.60;99.90
20231;DHT22;10274;49.022;9.338;2023-08-30T02:35:31;11.70;99.90
20231;DHT22;10274;49.022;9.338;2023-08-30T02:37:58;11.70;99.90
20231;DHT22;10274;49.022;9.338;2023-08-30T02:40:25;11.70;99.90
20231;DHT22;10274;49.022;9.338;2023-08-30T02:42:51;11.70;99.90
20231;DHT22;10274;49.022;9.338;2023-08-30T02:45:18;11.50;99.90
20231;DHT22;10274;49.022;9.338;2023-08-30T02:47:45;11.40;99.90
20231;DHT22;10274;49.022;9.338;2023-08-30T02:50:13;11.30;99.90
20231;DHT22;10274;49.022;9.338;2023-08-30T02:52:40;11.40;99.90
20231;DHT22;10274;49.022;9.338;2023-08-30T02:55:07;11.40;99.90
20231;DHT22;10274;49.022;9.338;2023-08-30T02:57:34;11.30;99.90
20231;DHT22;10274;49.022;9.338;2023-08-30T03:00:00;11.20;99.90
20231;DHT22;10274;49.022;9.338;2023-08-30T03:02:31;11.10;99.90
20231;DHT22;10274;49.022;9.338;2023-08-30T03:04:58;11.10;99.90
20231;DHT22;10274;49.022;9.338;2023-08-30T03:07:28;11.10;99.90
20231;DHT22;10274;49.022;9.338;2023-08-30T03:09:55;11.20;99.90
20231;DHT22;10274;49.022;9.338;2023-08-30T03:12:22;11.20;99.90
20231;DHT22;10274;49.022;9.338;2023-08-30T03:14:48;11.00;99.90
20231;DHT22;10274;49.022;9.338;2023-08-30T03:17:15;10.70;99.90
20231;DHT22;10274;49.022;9.338;2023-08-30T03:19:42;10.80;99.90
20231;DHT22;10274;49.022;9.338;2023-08-30T03:22:08;11.00;99.90
20231;DHT22;10274;49.022;9.338;2023-08-30T03:24:36;11.10;99.90
20231;DHT22;10274;49.022;9.338;2023-08-30T03:27:03;11.30;99.90
20231;DHT22;10274;49.022;9.338;2023-08-30T03:29:30;11.30;99.90
20231;DHT22;10274;49.022;9.338;2023-08-30T03:31:57;11.40;99.90
20231;DHT22;10274;49.022;9.338;2023-08-30T03:34:24;11.50;99.90
20231;DHT22;10274;49.022;9.338;2023-08-30T03:36:50;11.40;99.90
20231;DHT22;10274;49.022;9.338;2023-08-30T03:39:19;11.40;99.90
20231;DHT22;10274;49.022;9.338;2023-08-30T03:41:47;11.40;99.90
20231;DHT22;10274;49.022;9.338;2023-08-30T03:44:14;11.40;99.90
20231;DHT22;10274;49.022;9.338;2023-08-30T03:46:41;11.40;99.90
20231;DHT22;10274;49.022;9.338;2023-08-30T03:49:08;11.50;99.90
20231;DHT22;10274;49.022;9.338;2023-08-30T03:51:35;11.50;99.90
20231;DHT22;10274;49.022;9.338;2023-08-30T03:54:01;11.50;99.90
20231;DHT22;10274;49.022;9.338;2023-08-30T03:56:28;11.60;99.90
20231;DHT22;10274;49.022;9.338;2023-08-30T03:58:56;11.60;99.90
20231;DHT22;10274;49.022;9.338;2023-08-30T04:01:23;11.60;99.90
20231;DHT22;10274;49.022;9.338;2023-08-30T04:03:49;11.50;99.90
20231;DHT22;10274;49.022;9.338;2023-08-30T04:06:16;11.50;99.90
20231;DHT22;10274;49.022;9.338;2023-08-30T04:08:43;11.50;99.90
20231;DHT22;10274;49.022;9.338;2023-08-30T04:11:10;11.50;99.90
20231;DHT22;10274;49.022;9.338;2023-08-30T04:13:36;11.50;99.90
20231;DHT22;10274;49.022;9.338;2023-08-30T04:16:04;11.60;99.90
20231;DHT22;10274;49.022;9.338;2023-08-30T04:18:31;11.60;99.90
20231;DHT22;10274;49.022;9.338;2023-08-30T04:20:58;11.70;99.90
20231;DHT22;10274;49.022;9.338;2023-08-30T04:23:27;11.60;99.90
20231;DHT22;10274;49.022;9.338;2023-08-30T04:25:54;11.60;99.90
20231;DHT22;10274;49.022;9.338;2023-08-30T04:28:21;11.60;99.90
20231;DHT22;10274;49.022;9.338;2023-08-30T04:30:48;11.60;99.90
20231;DHT22;10274;49.022;9.338;2023-08-30T04:33:16;11.70;99.90
20231;DHT22;10274;49.022;9.338;2023-08-30T04:35:43;11.60;99.90
20231;DHT22;10274;49.022;9.338;2023-08-30T04:38:10;11.60;99.90
20231;DHT22;10274;49.022;9.338;2023-08-30T04:40:36;11.60;99.90
20231;DHT22;10274;49.022;9.338;2023-08-30T04:43:03;11.70;99.90
20231;DHT22;10274;49.022;9.338;2023-08-30T04:45:30;11.70;99.90
20231;DHT22;10274;49.022;9.338;2023-08-30T04:47:57;11.70;99.90
20231;DHT22;10274;49.022;9.338;2023-08-30T04:50:25;11.80;99.90
20231;DHT22;10274;49.022;9.338;2023-08-30T04:52:51;11.80;99.90
20231;DHT22;10274;49.022;9.338;2023-08-30T04:55:18;11.80;99.90
20231;DHT22;10274;49.022;9.338;2023-08-30T04:57:45;11.80;99.90
20231;DHT22;10274;49.022;9.338;2023-08-30T05:00:13;11.70;99.90
20231;DHT22;10274;49.022;9.338;2023-08-30T05:02:40;11.80;99.90
20231;DHT22;10274;49.022;9.338;2023-08-30T05:05:09;11.80;99.90
20231;DHT22;10274;49.022;9.338;2023-08-30T05:07:37;11.80;99.90
20231;DHT22;10274;49.022;9.338;2023-08-30T05:10:04;11.90;99.90
20231;DHT22;10274;49.022;9.338;2023-08-30T05:12:32;11.90;99.90
20231;DHT22;10274;49.022;9.338;2023-08-30T05:14:59;11.90;99.90
20231;DHT22;10274;49.022;9.338;2023-08-30T05:17:26;11.80;99.90
20231;DHT22;10274;49.022;9.338;2023-08-30T05:19:54;11.90;99.90
20231;DHT22;10274;49.022;9.338;2023-08-30T05:22:20;11.90;99.90
20231;DHT22;10274;49.022;9.338;2023-08-30T05:24:48;11.90;99.90
20231;DHT22;10274;49.022;9.338;2023-08-30T05:27:15;12.00;99.90
20231;DHT22;10274;49.022;9.338;2023-08-30T05:29:43;12.00;99.90
20231;DHT22;10274;49.022;9.338;2023-08-30T05:32:10;12.00;99.90
20231;DHT22;10274;49.022;9.338;2023-08-30T05:34:37;12.10;99.90
20231;DHT22;10274;49.022;9.338;2023-08-30T05:37:03;12.00;99.90
20231;DHT22;10274;49.022;9.338;2023-08-30T05:39:30;12.10;99.90
20231;DHT22;10274;49.022;9.338;2023-08-30T05:41:58;12.20;99.90
20231;DHT22;10274;49.022;9.338;2023-08-30T05:44:25;12.20;99.90
20231;DHT22;10274;49.022;9.338;2023-08-30T05:46:52;12.20;99.90
20231;DHT22;10274;49.022;9.338;2023-08-30T05:49:18;12.20;99.90
20231;DHT22;10274;49.022;9.338;2023-08-30T05:51:45;12.30;99.90
20231;DHT22;10274;49.022;9.338;2023-08-30T05:54:13;12.40;99.90
20231;DHT22;10274;49.022;9.338;2023-08-30T05:56:39;12.40;99.90
20231;DHT22;10274;49.022;9.338;2023-08-30T05:59:08;12.50;99.90
20231;DHT22;10274;49.022;9.338;2023-08-30T06:01:35;12.50;99.90
20231;DHT22;10274;49.022;9.338;2023-08-30T06:04:02;12.50;99.90
20231;DHT22;10274;49.022;9.338;2023-08-30T06:06:30;12.50;99.90
20231;DHT22;10274;49.022;9.338;2023-08-30T06:08:57;12.60;99.90
20231;DHT22;10274;49.022;9.338;2023-08-30T06:11:24;12.70;99.90
20231;DHT22;10274;49.022;9.338;2023-08-30T06:13:51;12.80;99.90
20231;DHT22;10274;49.022;9.338;2023-08-30T06:16:19;12.80;99.90
20231;DHT22;10274;49.022;9.338;2023-08-30T06:18:46;12.90;99.90
20231;DHT22;10274;49.022;9.338;2023-08-30T06:21:12;12.90;99.90
20231;DHT22;10274;49.022;9.338;2023-08-30T06:23:39;13.00;99.90
20231;DHT22;10274;49.022;9.338;2023-08-30T06:26:06;13.10;99.90
20231;DHT22;10274;49.022;9.338;2023-08-30T06:28:33;13.10;99.90
20231;DHT22;10274;49.022;9.338;2023-08-30T06:30:59;13.10;99.90
20231;DHT22;10274;49.022;9.338;2023-08-30T06:33:27;13.20;99.90
20231;DHT22;10274;49.022;9.338;2023-08-30T06:35:54;13.30;99.90
20231;DHT22;10274;49.022;9.338;2023-08-30T06:38:21;13.30;99.90
20231;DHT22;10274;49.022;9.338;2023-08-30T06:40:48;13.30;99.90
20231;DHT22;10274;49.022;9.338;2023-08-30T06:43:15;13.30;99.90
20231;DHT22;10274;49.022;9.338;2023-08-30T06:45:42;13.30;99.90
20231;DHT22;10274;49.022;9.338;2023-08-30T06:48:09;13.40;99.90
20231;DHT22;10274;49.022;9.338;2023-08-30T06:50:38;13.40;99.90
20231;DHT22;10274;49.022;9.338;2023-08-30T06:53:04;13.60;99.90
20231;DHT22;10274;49.022;9.338;2023-08-30T06:55:31;13.50;99.90
20231;DHT22;10274;49.022;9.338;2023-08-30T06:57:59;13.60;99.90
20231;DHT22;10274;49.022;9.338;2023-08-30T07:00:26;13.70;99.90
20231;DHT22;10274;49.022;9.338;2023-08-30T07:02:52;13.70;99.90
20231;DHT22;10274;49.022;9.338;2023-08-30T07:05:19;13.90;99.90
20231;DHT22;10274;49.022;9.338;2023-08-30T07:07:47;13.90;99.90
20231;DHT22;10274;49.022;9.338;2023-08-30T07:10:14;14.00;99.90
20231;DHT22;10274;49.022;9.338;2023-08-30T07:12:41;14.10;99.90
20231;DHT22;10274;49.022;9.338;2023-08-30T07:15:08;14.10;99.90
20231;DHT22;10274;49.022;9.338;2023-08-30T07:17:35;14.20;99.90
20231;DHT22;10274;49.022;9.338;2023-08-30T07:20:02;14.30;99.90
20231;DHT22;10274;49.022;9.338;2023-08-30T07:22:30;14.30;98.60
20231;DHT22;10274;49.022;9.338;2023-08-30T07:24:58;14.40;39.90
20231;DHT22;10274;49.022;9.338;2023-08-30T07:27:25;14.40;24.10
20231;DHT22;10274;49.022;9.338;2023-08-30T07:29:53;14.50;1.00
20231;DHT22;10274;49.022;9.338;2023-08-30T07:32:20;14.60;1.00
20231;DHT22;10274;49.022;9.338;2023-08-30T07:34:47;14.60;1.00
20231;DHT22;10274;49.022;9.338;2023-08-30T07:37:18;14.70;1.00
20231;DHT22;10274;49.022;9.338;2023-08-30T07:39:45;14.70;1.00
20231;DHT22;10274;49.022;9.338;2023-08-30T07:42:14;14.80;1.00
20231;DHT22;10274;49.022;9.338;2023-08-30T07:44:41;14.80;1.00
20231;DHT22;10274;49.022;9.338;2023-08-30T07:47:08;14.90;1.00
20231;DHT22;10274;49.022;9.338;2023-08-30T07:49:35;14.90;1.00
20231;DHT22;10274;49.022;9.338;2023-08-30T07:52:02;15.00;1.00
20231;DHT22;10274;49.022;9.338;2023-08-30T07:54:29;15.10;1.00
20231;DHT22;10274;49.022;9.338;2023-08-30T07:56:56;15.30;99.90
20231;DHT22;10274;49.022;9.338;2023-08-30T07:59:24;15.40;99.90
20231;DHT22;10274;49.022;9.338;2023-08-30T08:01:51;15.40;99.90
20231;DHT22;10274;49.022;9.338;2023-08-30T08:04:18;15.50;98.00
20231;DHT22;10274;49.022;9.338;2023-08-30T08:06:44;15.60;1.00
20231;DHT22;10274;49.022;9.338;2023-08-30T08:09:11;15.70;2.80
20231;DHT22;10274;49.022;9.338;2023-08-30T08:11:38;15.80;1.00
20231;DHT22;10274;49.022;9.338;2023-08-30T08:14:08;15.80;1.00
20231;DHT22;10274;49.022;9.338;2023-08-30T08:16:37;16.00;1.00
20231;DHT22;10274;49.022;9.338;2023-08-30T08:19:04;16.10;99.90
20231;DHT22;10274;49.022;9.338;2023-08-30T08:21:31;16.30;1.00
20231;DHT22;10274;49.022;9.338;2023-08-30T08:23:58;16.70;99.90
20231;DHT22;10274;49.022;9.338;2023-08-30T08:26:25;16.70;1.00
20231;DHT22;10274;49.022;9.338;2023-08-30T08:28:51;16.70;1.00
20231;DHT22;10274;49.022;9.338;2023-08-30T08:31:18;16.70;1.00
20231;DHT22;10274;49.022;9.338;2023-08-30T08:33:46;16.60;99.90
20231;DHT22;10274;49.022;9.338;2023-08-30T08:36:13;16.50;1.00
20231;DHT22;10274;49.022;9.338;2023-08-30T08:38:40;16.70;1.00
20231;DHT22;10274;49.022;9.338;2023-08-30T08:41:07;16.70;1.00
20231;DHT22;10274;49.022;9.338;2023-08-30T08:43:35;16.60;1.00
20231;DHT22;10274;49.022;9.338;2023-08-30T08:46:03;16.40;1.00
20231;DHT22;10274;49.022;9.338;2023-08-30T08:48:35;16.40;1.00
20231;DHT22;10274;49.022;9.338;2023-08-30T08:51:05;16.60;1.00
20231;DHT22;10274;49.022;9.338;2023-08-30T08:53:32;16.50;1.00
20231;DHT22;10274;49.022;9.338;2023-08-30T08:56:00;16.60;1.00
20231;DHT22;10274;49.022;9.338;2023-08-30T08:58:28;16.80;1.00
20231;DHT22;10274;49.022;9.338;2023-08-30T09:00:55;17.00;99.90
20231;DHT22;10274;49.022;9.338;2023-08-30T09:03:23;17.20;1.00
20231;DHT22;10274;49.022;9.338;2023-08-30T09:05:50;17.70;99.90
20231;DHT22;10274;49.022;9.338;2023-08-30T09:08:19;17.80;1.00
20231;DHT22;10274;49.022;9.338;2023-08-30T09:10:47;18.00;1.00
20231;DHT22;10274;49.022;9.338;2023-08-30T09:13:16;18.80;99.90
20231;DHT22;10274;49.022;9.338;2023-08-30T09:15:43;18.70;99.30
20231;DHT22;10274;49.022;9.338;2023-08-30T09:18:15;18.60;1.00
20231;DHT22;10274;49.022;9.338;2023-08-30T09:20:42;18.70;1.00
20231;DHT22;10274;49.022;9.338;2023-08-30T09:23:16;19.00;1.00
20231;DHT22;10274;49.022;9.338;2023-08-30T09:25:45;19.10;1.00
20231;DHT22;10274;49.022;9.338;2023-08-30T09:28:12;19.10;1.00
20231;DHT22;10274;49.022;9.338;2023-08-30T09:30:39;19.30;99.90
20231;DHT22;10274;49.022;9.338;2023-08-30T09:33:05;19.30;99.90
20231;DHT22;10274;49.022;9.338;2023-08-30T09:35:32;19.20;99.90
20231;DHT22;10274;49.022;9.338;2023-08-30T09:38:05;19.10;99.90
20231;DHT22;10274;49.022;9.338;2023-08-30T09:40:32;19.60;99.90
20231;DHT22;10274;49.022;9.338;2023-08-30T09:43:01;20.20;99.90
20231;DHT22;10274;49.022;9.338;2023-08-30T09:45:30;20.40;1.00
20231;DHT22;10274;49.022;9.338;2023-08-30T09:47:57;20.40;1.00
20231;DHT22;10274;49.022;9.338;2023-08-30T09:50:23;20.60;1.00
20231;DHT22;10274;49.022;9.338;2023-08-30T09:52:51;20.70;1.00
20231;DHT22;10274;49.022;9.338;2023-08-30T09:55:18;21.00;1.00
20231;DHT22;10274;49.022;9.338;2023-08-30T09:57:45;20.70;1.00
20231;DHT22;10274;49.022;9.338;2023-08-30T10:00:15;20.70;99.90
20231;DHT22;10274;49.022;9.338;2023-08-30T10:02:42;20.80;99.90
20231;DHT22;10274;49.022;9.338;2023-08-30T10:05:10;20.70;99.90
20231;DHT22;10274;49.022;9.338;2023-08-30T10:07:38;20.80;99.90
20231;DHT22;10274;49.022;9.338;2023-08-30T10:10:06;21.20;99.90
20231;DHT22;10274;49.022;9.338;2023-08-30T10:12:33;20.90;99.90
20231;DHT22;10274;49.022;9.338;2023-08-30T10:15:00;20.90;99.90
20231;DHT22;10274;49.022;9.338;2023-08-30T10:17:32;20.70;99.90
20231;DHT22;10274;49.022;9.338;2023-08-30T10:20:03;20.90;99.90
20231;DHT22;10274;49.022;9.338;2023-08-30T10:22:31;21.50;99.90
20231;DHT22;10274;49.022;9.338;2023-08-30T10:25:01;21.50;99.90
20231;DHT22;10274;49.022;9.338;2023-08-30T10:27:31;21.50;99.90
20231;DHT22;10274;49.022;9.338;2023-08-30T10:30:01;21.00;94.80
20231;DHT22;10274;49.022;9.338;2023-08-30T10:32:29;21.30;53.80
20231;DHT22;10274;49.022;9.338;2023-08-30T10:35:01;20.90;4.50
20231;DHT22;10274;49.022;9.338;2023-08-30T10:37:29;21.30;1.00
20231;DHT22;10274;49.022;9.338;2023-08-30T10:39:59;21.40;11.40
20231;DHT22;10274;49.022;9.338;2023-08-30T10:42:28;21.60;1.00
20231;DHT22;10274;49.022;9.338;2023-08-30T10:44:58;21.50;1.00
20231;DHT22;10274;49.022;9.338;2023-08-30T10:47:27;21.80;1.00
20231;DHT22;10274;49.022;9.338;2023-08-30T10:49:56;21.70;1.00
20231;DHT22;10274;49.022;9.338;2023-08-30T10:52:24;21.80;1.00
20231;DHT22;10274;49.022;9.338;2023-08-30T10:54:51;21.70;1.00
20231;DHT22;10274;49.022;9.338;2023-08-30T10:57:20;21.60;1.00
20231;DHT22;10274;49.022;9.338;2023-08-30T11:00:07;21.40;1.00
20231;DHT22;10274;49.022;9.338;2023-08-30T11:02:35;21.50;1.00
20231;DHT22;10274;49.022;9.338;2023-08-30T11:05:07;21.60;1.00
20231;DHT22;10274;49.022;9.338;2023-08-30T11:07:35;21.70;1.00
20231;DHT22;10274;49.022;9.338;2023-08-30T11:10:04;21.60;1.00
20231;DHT22;10274;49.022;9.338;2023-08-30T11:12:31;21.70;1.00
20231;DHT22;10274;49.022;9.338;2023-08-30T11:14:58;22.00;1.00
20231;DHT22;10274;49.022;9.338;2023-08-30T11:17:26;21.90;1.00
20231;DHT22;10274;49.022;9.338;2023-08-30T11:19:58;22.30;1.00
20231;DHT22;10274;49.022;9.338;2023-08-30T11:22:26;22.30;1.00
20231;DHT22;10274;49.022;9.338;2023-08-30T11:24:53;21.90;1.00
20231;DHT22;10274;49.022;9.338;2023-08-30T11:27:20;21.20;1.00
20231;DHT22;10274;49.022;9.338;2023-08-30T11:29:47;21.30;1.00
20231;DHT22;10274;49.022;9.338;2023-08-30T11:32:13;21.90;1.00
20231;DHT22;10274;49.022;9.338;2023-08-30T11:34:40;21.40;1.00
20231;DHT22;10274;49.022;9.338;2023-08-30T11:37:07;20.80;1.00
20231;DHT22;10274;49.022;9.338;2023-08-30T11:39:35;20.70;1.00
20231;DHT22;10274;49.022;9.338;2023-08-30T11:42:03;21.10;1.00
20231;DHT22;10274;49.022;9.338;2023-08-30T11:44:32;20.80;1.00
20231;DHT22;10274;49.022;9.338;2023-08-30T11:46:58;21.00;1.00
20231;DHT22;10274;49.022;9.338;2023-08-30T11:49:26;21.10;1.00
20231;DHT22;10274;49.022;9.338;2023-08-30T11:51:54;20.70;1.00
20231;DHT22;10274;49.022;9.338;2023-08-30T11:54:22;20.20;1.00
20231;DHT22;10274;49.022;9.338;2023-08-30T11:56:50;20.10;1.00
20231;DHT22;10274;49.022;9.338;2023-08-30T11:59:20;20.20;1.00
20231;DHT22;10274;49.022;9.338;2023-08-30T12:01:48;20.20;1.00
20231;DHT22;10274;49.022;9.338;2023-08-30T12:04:14;20.60;1.00
20231;DHT22;10274;49.022;9.338;2023-08-30T12:06:44;20.20;1.00
20231;DHT22;10274;49.022;9.338;2023-08-30T12:09:13;20.80;1.00
20231;DHT22;10274;49.022;9.338;2023-08-30T12:11:40;20.50;1.00
20231;DHT22;10274;49.022;9.338;2023-08-30T12:14:08;20.10;1.00
20231;DHT22;10274;49.022;9.338;2023-08-30T12:16:35;19.90;1.00
20231;DHT22;10274;49.022;9.338;2023-08-30T12:19:08;19.90;1.00
20231;DHT22;10274;49.022;9.338;2023-08-30T12:21:39;19.90;1.00
20231;DHT22;10274;49.022;9.338;2023-08-30T12:24:07;19.80;1.00
20231;DHT22;10274;49.022;9.338;2023-08-30T12:26:33;19.70;1.00
20231;DHT22;10274;49.022;9.338;2023-08-30T12:29:00;19.60;1.00
20231;DHT22;10274;49.022;9.338;2023-08-30T12:31:28;19.60;1.00
20231;DHT22;10274;49.022;9.338;2023-08-30T12:33:56;19.30;1.00
20231;DHT22;10274;49.022;9.338;2023-08-30T12:36:23;19.40;1.00
20231;DHT22;10274;49.022;9.338;2023-08-30T12:38:50;19.30;1.00
20231;DHT22;10274;49.022;9.338;2023-08-30T12:41:17;19.20;1.00
20231;DHT22;10274;49.022;9.338;2023-08-30T12:43:46;19.20;1.00
20231;DHT22;10274;49.022;9.338;2023-08-30T12:46:12;19.10;1.00
20231;DHT22;10274;49.022;9.338;2023-08-30T12:48:40;19.10;1.00
20231;DHT22;10274;49.022;9.338;2023-08-30T12:51:07;19.00;1.00
20231;DHT22;10274;49.022;9.338;2023-08-30T12:53:34;19.10;1.00
20231;DHT22;10274;49.022;9.338;2023-08-30T12:56:01;19.20;1.00
20231;DHT22;10274;49.022;9.338;2023-08-30T12:58:27;19.20;1.00
20231;DHT22;10274;49.022;9.338;2023-08-30T13:00:54;19.10;1.00
20231;DHT22;10274;49.022;9.338;2023-08-30T13:03:21;19.20;1.00
20231;DHT22;10274;49.022;9.338;2023-08-30T13:05:49;19.10;1.00
20231;DHT22;10274;49.022;9.338;2023-08-30T13:08:16;19.10;1.00
20231;DHT22;10274;49.022;9.338;2023-08-30T13:10:42;19.30;1.00
20231;DHT22;10274;49.022;9.338;2023-08-30T13:13:09;19.30;1.00
20231;DHT22;10274;49.022;9.338;2023-08-30T13:15:36;19.50;1.00
20231;DHT22;10274;49.022;9.338;2023-08-30T13:18:03;19.70;1.00
20231;DHT22;10274;49.022;9.338;2023-08-30T13:20:30;19.70;1.00
20231;DHT22;10274;49.022;9.338;2023-08-30T13:22:58;19.80;1.00
20231;DHT22;10274;49.022;9.338;2023-08-30T13:25:24;19.90;1.00
20231;DHT22;10274;49.022;9.338;2023-08-30T13:27:52;20.00;1.00
20231;DHT22;10274;49.022;9.338;2023-08-30T13:30:19;20.00;1.00
20231;DHT22;10274;49.022;9.338;2023-08-30T13:32:45;20.10;1.00
20231;DHT22;10274;49.022;9.338;2023-08-30T13:35:12;20.20;1.00
20231;DHT22;10274;49.022;9.338;2023-08-30T13:37:39;20.30;1.00
20231;DHT22;10274;49.022;9.338;2023-08-30T13:40:08;20.30;1.00
20231;DHT22;10274;49.022;9.338;2023-08-30T13:42:35;20.60;1.00
20231;DHT22;10274;49.022;9.338;2023-08-30T13:45:02;20.80;1.00
20231;DHT22;10274;49.022;9.338;2023-08-30T13:47:29;20.90;1.00
20231;DHT22;10274;49.022;9.338;2023-08-30T13:49:56;21.20;1.00
20231;DHT22;10274;49.022;9.338;2023-08-30T13:52:25;21.30;1.00
20231;DHT22;10274;49.022;9.338;2023-08-30T13:54:51;21.50;1.00
20231;DHT22;10274;49.022;9.338;2023-08-30T13:57:19;21.60;1.00
20231;DHT22;10274;49.022;9.338;2023-08-30T13:59:47;21.80;1.00
20231;DHT22;10274;49.022;9.338;2023-08-30T14:02:14;21.70;1.00
20231;DHT22;10274;49.022;9.338;2023-08-30T14:04:40;21.80;1.00
20231;DHT22;10274;49.022;9.338;2023-08-30T14:07:07;21.60;1.00
20231;DHT22;10274;49.022;9.338;2023-08-30T14:09:34;22.00;1.00
20231;DHT22;10274;49.022;9.338;2023-08-30T14:12:01;22.40;1.00
20231;DHT22;10274;49.022;9.338;2023-08-30T14:14:30;22.20;1.00
20231;DHT22;10274;49.022;9.338;2023-08-30T14:16:57;22.10;1.00
20231;DHT22;10274;49.022;9.338;2023-08-30T14:19:24;21.80;1.00
20231;DHT22;10274;49.022;9.338;2023-08-30T14:21:50;22.00;1.00
20231;DHT22;10274;49.022;9.338;2023-08-30T14:24:19;21.90;1.00
20231;DHT22;10274;49.022;9.338;2023-08-30T14:26:46;21.70;1.00
20231;DHT22;10274;49.022;9.338;2023-08-30T14:29:13;21.30;1.00
20231;DHT22;10274;49.022;9.338;2023-08-30T14:31:40;20.70;1.00
20231;DHT22;10274;49.022;9.338;2023-08-30T14:34:07;20.50;1.00
20231;DHT22;10274;49.022;9.338;2023-08-30T14:36:33;20.20;1.00
20231;DHT22;10274;49.022;9.338;2023-08-30T14:39:00;20.10;1.00
20231;DHT22;10274;49.022;9.338;2023-08-30T14:41:27;20.00;1.00
20231;DHT22;10274;49.022;9.338;2023-08-30T14:43:53;19.80;1.00
20231;DHT22;10274;49.022;9.338;2023-08-30T14:46:20;19.70;1.00
20231;DHT22;10274;49.022;9.338;2023-08-30T14:48:48;19.50;1.00
20231;DHT22;10274;49.022;9.338;2023-08-30T14:51:15;19.60;1.00
20231;DHT22;10274;49.022;9.338;2023-08-30T14:53:42;19.50;1.00
20231;DHT22;10274;49.022;9.338;2023-08-30T14:56:08;19.50;1.00
20231;DHT22;10274;49.022;9.338;2023-08-30T14:58:37;19.70;1.00
20231;DHT22;10274;49.022;9.338;2023-08-30T15:01:04;19.70;1.00
20231;DHT22;10274;49.022;9.338;2023-08-30T15:03:31;20.00;1.00
20231;DHT22;10274;49.022;9.338;2023-08-30T15:05:59;20.20;1.00
20231;DHT22;10274;49.022;9.338;2023-08-30T15:08:26;20.10;1.00
20231;DHT22;10274;49.022;9.338;2023-08-30T15:10:52;20.10;1.00
20231;DHT22;10274;49.022;9.338;2023-08-30T15:13:20;20.20;1.00
20231;DHT22;10274;49.022;9.338;2023-08-30T15:15:46;20.20;1.00
20231;DHT22;10274;49.022;9.338;2023-08-30T15:18:13;20.20;1.00
20231;DHT22;10274;49.022;9.338;2023-08-30T15:20:40;20.20;1.00
20231;DHT22;10274;49.022;9.338;2023-08-30T15:23:11;20.20;1.00
20231;DHT22;10274;49.022;9.338;2023-08-30T15:25:43;20.20;1.00
20231;DHT22;10274;49.022;9.338;2023-08-30T15:28:10;20.20;1.00
20231;DHT22;10274;49.022;9.338;2023-08-30T15:30:36;20.10;1.00
20231;DHT22;10274;49.022;9.338;2023-08-30T15:33:05;19.70;1.00
20231;DHT22;10274;49.022;9.338;2023-08-30T15:35:36;19.40;1.00
20231;DHT22;10274;49.022;9.338;2023-08-30T15:38:03;19.30;1.00
20231;DHT22;10274;49.022;9.338;2023-08-30T15:40:31;19.20;1.00
20231;DHT22;10274;49.022;9.338;2023-08-30T15:42:59;19.20;1.00